Pagina principale
METAR-TAF:

METAR-TAF

Aeroporti :

Aeroporto di Grosseto

Grosseto, Italia

latitudine: 42-45N, longitudine: 011-04E, altezza: 5 m

Osservazione

Il bollettino è stato emesso 39 minuti fa, alle 13:55 UTC
Vento 8 kt da sud-ovest
Temperature 16°C
Umidità 39%
Pressione 1031 hPa
Visibilità 10 km o più
nessuna nube inferiore a 1500 m e nessun cumulonembo

METAR: LIRS 021355Z 23008KT CAVOK 16/02 Q1031 RMK FEW FEW200 VIS MIN 9999 WIND THR03 24008KT WIND THR21 24008KT BLU

Ora: 15:34 (14:34 UTC)

Previsione

Il bollettino è stato emesso 3 ore e 34 minuti fa, alle 11:00 UTC
Previsione valida dal 02 alle 12 UTC al 02 alle 21 UTC
Vento 11 kt da sud-ovest
Visibilità 10 km o più
nessuna nube inferiore a 1500 m e nessun cumulonembo
Evoluzione graduale
dal 02 alle 18 UTC al 02 alle 19 UTC
Vento 5 kt da nord/nord-est

TAF: LIRS 021100Z 0212/0221 23011KT CAVOK BECMG 0218/0219 02005KT

Osservazioni e previsioni meteorologiche di più di 4000 aeroporti (messaggi METAR e TAF).

Le stazioni disponibili sono rappresentate dai dischi gialli e rossi sulla carta.

Puntare il mouse per vedere il nome della stazione.

Clicca sopra per visualizzare le osservazioni e previsioni meteorologiche.

Per cambiare la mappa : fare clic sui pulsanti verdi con una croce nera per ingrandire, il pulsante verde con un trattino per diminuire, o sulla freccia verde per le mappe adiacenti.


METAR-TAF: